sensor_id;sensor_type;location;lat;lon;timestamp;pressure;altitude;pressure_sealevel;temperature;humidity
77603;BME280;66771;52.434;17.056;2023-03-25T00:00:08;99480.42;;;6.96;82.06
77603;BME280;66771;52.434;17.056;2023-03-25T00:03:02;99479.19;;;6.94;82.03
77603;BME280;66771;52.434;17.056;2023-03-25T00:05:30;99473.95;;;6.92;82.21
77603;BME280;66771;52.434;17.056;2023-03-25T00:07:57;99472.41;;;6.91;82.37
77603;BME280;66771;52.434;17.056;2023-03-25T00:10:23;99464.78;;;6.90;82.13
77603;BME280;66771;52.434;17.056;2023-03-25T00:12:50;99459.88;;;6.89;82.14
77603;BME280;66771;52.434;17.056;2023-03-25T00:15:17;99458.45;;;6.84;81.91
77603;BME280;66771;52.434;17.056;2023-03-25T00:17:44;99457.70;;;6.83;81.97
77603;BME280;66771;52.434;17.056;2023-03-25T00:20:11;99453.48;;;6.82;82.04
77603;BME280;66771;52.434;17.056;2023-03-25T00:22:39;99450.02;;;6.83;82.11
77603;BME280;66771;52.434;17.056;2023-03-25T00:25:09;99451.66;;;6.82;82.24
77603;BME280;66771;52.434;17.056;2023-03-25T00:27:39;99449.71;;;6.77;82.12
77603;BME280;66771;52.434;17.056;2023-03-25T00:30:06;99443.23;;;6.76;82.15
77603;BME280;66771;52.434;17.056;2023-03-25T00:32:33;99445.23;;;6.75;82.12
77603;BME280;66771;52.434;17.056;2023-03-25T00:35:01;99442.94;;;6.73;82.14
77603;BME280;66771;52.434;17.056;2023-03-25T00:37:27;99436.48;;;6.75;82.29
77603;BME280;66771;52.434;17.056;2023-03-25T00:39:55;99435.02;;;6.78;82.25
77603;BME280;66771;52.434;17.056;2023-03-25T00:42:22;99435.70;;;6.78;81.99
77603;BME280;66771;52.434;17.056;2023-03-25T00:44:52;99433.97;;;6.76;81.94
77603;BME280;66771;52.434;17.056;2023-03-25T00:47:19;99425.03;;;6.69;82.01
77603;BME280;66771;52.434;17.056;2023-03-25T00:49:48;99415.02;;;6.60;82.05
77603;BME280;66771;52.434;17.056;2023-03-25T00:52:15;99416.52;;;6.61;81.97
77603;BME280;66771;52.434;17.056;2023-03-25T00:54:42;99418.42;;;6.62;82.00
77603;BME280;66771;52.434;17.056;2023-03-25T00:57:09;99415.27;;;6.61;81.99
77603;BME280;66771;52.434;17.056;2023-03-25T00:59:36;99415.08;;;6.59;81.80
77603;BME280;66771;52.434;17.056;2023-03-25T01:02:02;99410.22;;;6.55;81.72
77603;BME280;66771;52.434;17.056;2023-03-25T01:04:33;99412.42;;;6.52;81.98
77603;BME280;66771;52.434;17.056;2023-03-25T01:07:00;99415.69;;;6.47;81.72
77603;BME280;66771;52.434;17.056;2023-03-25T01:09:28;99414.77;;;6.36;81.57
77603;BME280;66771;52.434;17.056;2023-03-25T01:11:56;99410.39;;;6.19;81.31
77603;BME280;66771;52.434;17.056;2023-03-25T01:14:23;99425.02;;;6.15;81.39
77603;BME280;66771;52.434;17.056;2023-03-25T01:16:53;99428.70;;;6.11;81.89
77603;BME280;66771;52.434;17.056;2023-03-25T01:19:21;99427.86;;;6.07;81.88
77603;BME280;66771;52.434;17.056;2023-03-25T01:21:49;99419.02;;;6.01;82.07
77603;BME280;66771;52.434;17.056;2023-03-25T01:24:16;99412.95;;;5.96;82.24
77603;BME280;66771;52.434;17.056;2023-03-25T01:26:44;99413.26;;;5.91;82.77
77603;BME280;66771;52.434;17.056;2023-03-25T01:29:16;99409.27;;;5.90;82.60
77603;BME280;66771;52.434;17.056;2023-03-25T01:31:43;99408.50;;;5.91;82.59
77603;BME280;66771;52.434;17.056;2023-03-25T01:34:10;99414.30;;;5.89;82.34
77603;BME280;66771;52.434;17.056;2023-03-25T01:36:37;99410.35;;;5.87;82.47
77603;BME280;66771;52.434;17.056;2023-03-25T01:39:07;99414.56;;;5.89;82.50
77603;BME280;66771;52.434;17.056;2023-03-25T01:41:35;99427.33;;;5.90;82.82
77603;BME280;66771;52.434;17.056;2023-03-25T01:46:57;99419.54;;;5.87;82.72
77603;BME280;66771;52.434;17.056;2023-03-25T01:49:31;99405.36;;;5.90;82.99
77603;BME280;66771;52.434;17.056;2023-03-25T01:52:02;99395.06;;;5.99;83.36
77603;BME280;66771;52.434;17.056;2023-03-25T01:54:30;99399.93;;;6.01;83.04
77603;BME280;66771;52.434;17.056;2023-03-25T01:56:58;99395.89;;;5.97;83.05
77603;BME280;66771;52.434;17.056;2023-03-25T01:59:26;99395.27;;;5.91;82.82
77603;BME280;66771;52.434;17.056;2023-03-25T02:02:00;99396.27;;;5.90;83.07
77603;BME280;66771;52.434;17.056;2023-03-25T02:04:49;99395.20;;;5.92;82.95
77603;BME280;66771;52.434;17.056;2023-03-25T02:07:28;99400.41;;;5.94;82.96
77603;BME280;66771;52.434;17.056;2023-03-25T02:09:59;99399.84;;;5.92;82.83
77603;BME280;66771;52.434;17.056;2023-03-25T02:12:27;99397.77;;;5.86;82.75
77603;BME280;66771;52.434;17.056;2023-03-25T02:14:55;99392.95;;;5.77;82.70
77603;BME280;66771;52.434;17.056;2023-03-25T02:26:52;99388.52;;;5.75;83.34
77603;BME280;66771;52.434;17.056;2023-03-25T02:29:54;99390.69;;;5.74;83.20
77603;BME280;66771;52.434;17.056;2023-03-25T02:38:16;99374.05;;;5.70;83.30
77603;BME280;66771;52.434;17.056;2023-03-25T02:40:51;99376.77;;;5.63;83.04
77603;BME280;66771;52.434;17.056;2023-03-25T02:43:33;99381.14;;;5.57;83.16
77603;BME280;66771;52.434;17.056;2023-03-25T02:46:08;99377.98;;;5.54;83.11
77603;BME280;66771;52.434;17.056;2023-03-25T02:51:22;99372.77;;;5.38;82.98
77603;BME280;66771;52.434;17.056;2023-03-25T02:53:52;99376.38;;;5.28;83.13
77603;BME280;66771;52.434;17.056;2023-03-25T02:56:24;99378.35;;;5.21;83.00
77603;BME280;66771;52.434;17.056;2023-03-25T02:58:53;99380.25;;;5.17;83.02
77603;BME280;66771;52.434;17.056;2023-03-25T03:01:22;99375.61;;;5.19;83.47
77603;BME280;66771;52.434;17.056;2023-03-25T03:03:55;99379.27;;;5.25;83.73
77603;BME280;66771;52.434;17.056;2023-03-25T03:06:23;99372.88;;;5.27;83.88
77603;BME280;66771;52.434;17.056;2023-03-25T03:11:22;99363.90;;;5.37;84.17
77603;BME280;66771;52.434;17.056;2023-03-25T03:20:16;99354.45;;;5.44;83.81
77603;BME280;66771;52.434;17.056;2023-03-25T03:22:53;99352.04;;;5.34;83.51
77603;BME280;66771;52.434;17.056;2023-03-25T03:28:26;99357.62;;;5.19;83.72
77603;BME280;66771;52.434;17.056;2023-03-25T03:31:10;99360.03;;;5.13;83.52
77603;BME280;66771;52.434;17.056;2023-03-25T03:33:57;99361.40;;;5.07;83.27
77603;BME280;66771;52.434;17.056;2023-03-25T03:36:32;99370.13;;;5.04;83.52
77603;BME280;66771;52.434;17.056;2023-03-25T03:39:11;99374.52;;;5.03;83.44
77603;BME280;66771;52.434;17.056;2023-03-25T03:41:44;99367.12;;;4.95;83.60
77603;BME280;66771;52.434;17.056;2023-03-25T03:44:15;99374.74;;;4.98;83.76
77603;BME280;66771;52.434;17.056;2023-03-25T03:46:52;99372.88;;;4.94;83.74
77603;BME280;66771;52.434;17.056;2023-03-25T03:49:52;99372.31;;;4.97;84.04
77603;BME280;66771;52.434;17.056;2023-03-25T03:52:23;99381.09;;;4.94;83.65
77603;BME280;66771;52.434;17.056;2023-03-25T03:55:06;99383.27;;;4.88;83.51
77603;BME280;66771;52.434;17.056;2023-03-25T03:57:40;99386.61;;;4.89;83.79
77603;BME280;66771;52.434;17.056;2023-03-25T04:00:15;99388.23;;;4.86;84.00
77603;BME280;66771;52.434;17.056;2023-03-25T04:05:30;99392.33;;;4.84;84.20
77603;BME280;66771;52.434;17.056;2023-03-25T04:08:06;99384.85;;;4.88;84.56
77603;BME280;66771;52.434;17.056;2023-03-25T04:10:54;99386.48;;;5.03;84.27
77603;BME280;66771;52.434;17.056;2023-03-25T04:13:28;99392.20;;;5.08;84.27
77603;BME280;66771;52.434;17.056;2023-03-25T04:15:58;99399.55;;;5.16;84.62
77603;BME280;66771;52.434;17.056;2023-03-25T04:18:26;99404.98;;;5.22;84.79
77603;BME280;66771;52.434;17.056;2023-03-25T04:20:54;99408.52;;;5.23;84.54
77603;BME280;66771;52.434;17.056;2023-03-25T04:23:21;99406.48;;;5.21;84.14
77603;BME280;66771;52.434;17.056;2023-03-25T04:25:48;99406.52;;;5.19;83.93
77603;BME280;66771;52.434;17.056;2023-03-25T04:28:21;99398.58;;;5.15;84.18
77603;BME280;66771;52.434;17.056;2023-03-25T04:30:49;99403.80;;;5.19;84.27
77603;BME280;66771;52.434;17.056;2023-03-25T04:33:22;99406.95;;;5.15;83.94
77603;BME280;66771;52.434;17.056;2023-03-25T04:35:49;99402.41;;;5.14;84.17
77603;BME280;66771;52.434;17.056;2023-03-25T04:38:17;99401.19;;;5.12;83.86
77603;BME280;66771;52.434;17.056;2023-03-25T04:40:45;99400.66;;;5.09;83.89
77603;BME280;66771;52.434;17.056;2023-03-25T04:43:13;99395.04;;;5.05;83.99
77603;BME280;66771;52.434;17.056;2023-03-25T04:45:42;99397.42;;;4.97;83.75
77603;BME280;66771;52.434;17.056;2023-03-25T04:48:22;99396.32;;;4.95;84.02
77603;BME280;66771;52.434;17.056;2023-03-25T04:50:51;99387.55;;;4.96;84.44
77603;BME280;66771;52.434;17.056;2023-03-25T04:53:18;99397.17;;;5.00;83.97
77603;BME280;66771;52.434;17.056;2023-03-25T04:55:45;99405.13;;;4.99;83.89
77603;BME280;66771;52.434;17.056;2023-03-25T04:58:14;99401.00;;;4.97;84.19
77603;BME280;66771;52.434;17.056;2023-03-25T05:00:43;99399.11;;;4.94;83.92
77603;BME280;66771;52.434;17.056;2023-03-25T05:03:10;99389.45;;;4.87;84.03
77603;BME280;66771;52.434;17.056;2023-03-25T05:05:37;99390.27;;;4.91;84.32
77603;BME280;66771;52.434;17.056;2023-03-25T05:08:04;99380.88;;;4.92;84.03
77603;BME280;66771;52.434;17.056;2023-03-25T05:10:31;99380.33;;;4.94;83.98
77603;BME280;66771;52.434;17.056;2023-03-25T05:13:02;99386.60;;;5.01;84.33
77603;BME280;66771;52.434;17.056;2023-03-25T05:15:30;99388.14;;;5.07;84.50
77603;BME280;66771;52.434;17.056;2023-03-25T05:18:00;99387.27;;;5.09;84.61
77603;BME280;66771;52.434;17.056;2023-03-25T05:20:30;99393.05;;;5.15;84.57
77603;BME280;66771;52.434;17.056;2023-03-25T05:23:00;99391.96;;;5.27;84.74
77603;BME280;66771;52.434;17.056;2023-03-25T05:25:26;99393.98;;;5.38;84.72
77603;BME280;66771;52.434;17.056;2023-03-25T05:27:54;99397.00;;;5.50;84.60
77603;BME280;66771;52.434;17.056;2023-03-25T05:30:21;99396.67;;;5.69;84.70
77603;BME280;66771;52.434;17.056;2023-03-25T05:32:48;99397.25;;;5.84;84.66
77603;BME280;66771;52.434;17.056;2023-03-25T05:35:16;99402.48;;;5.95;84.59
77603;BME280;66771;52.434;17.056;2023-03-25T05:37:44;99401.20;;;6.05;84.55
77603;BME280;66771;52.434;17.056;2023-03-25T05:40:11;99404.04;;;6.09;84.14
77603;BME280;66771;52.434;17.056;2023-03-25T05:42:38;99404.77;;;6.18;84.26
77603;BME280;66771;52.434;17.056;2023-03-25T05:45:12;99402.22;;;6.32;84.35
77603;BME280;66771;52.434;17.056;2023-03-25T05:47:38;99395.64;;;6.44;84.25
77603;BME280;66771;52.434;17.056;2023-03-25T05:50:06;99394.67;;;6.53;84.16
77603;BME280;66771;52.434;17.056;2023-03-25T05:52:33;99393.73;;;6.65;84.15
77603;BME280;66771;52.434;17.056;2023-03-25T05:55:02;99388.16;;;6.76;84.04
77603;BME280;66771;52.434;17.056;2023-03-25T05:57:30;99390.10;;;6.94;83.85
77603;BME280;66771;52.434;17.056;2023-03-25T05:59:57;99394.81;;;7.17;83.70
77603;BME280;66771;52.434;17.056;2023-03-25T06:02:24;99395.02;;;7.38;83.51
77603;BME280;66771;52.434;17.056;2023-03-25T06:04:51;99393.88;;;7.56;83.39
77603;BME280;66771;52.434;17.056;2023-03-25T06:07:18;99389.77;;;7.74;83.36
77603;BME280;66771;52.434;17.056;2023-03-25T06:09:48;99386.92;;;7.97;83.20
77603;BME280;66771;52.434;17.056;2023-03-25T06:12:17;99381.06;;;8.19;83.13
77603;BME280;66771;52.434;17.056;2023-03-25T06:14:46;99380.98;;;8.43;82.81
77603;BME280;66771;52.434;17.056;2023-03-25T06:17:15;99376.59;;;8.64;82.68
77603;BME280;66771;52.434;17.056;2023-03-25T06:19:44;99385.95;;;8.80;82.30
77603;BME280;66771;52.434;17.056;2023-03-25T06:22:11;99384.11;;;8.84;82.05
77603;BME280;66771;52.434;17.056;2023-03-25T06:24:39;99389.38;;;8.83;81.67
77603;BME280;66771;52.434;17.056;2023-03-25T06:27:10;99388.20;;;8.84;81.72
77603;BME280;66771;52.434;17.056;2023-03-25T06:29:37;99386.16;;;8.85;81.39
77603;BME280;66771;52.434;17.056;2023-03-25T06:32:04;99385.12;;;8.89;81.28
77603;BME280;66771;52.434;17.056;2023-03-25T06:34:31;99385.34;;;8.92;81.13
77603;BME280;66771;52.434;17.056;2023-03-25T06:36:59;99388.71;;;8.93;81.01
77603;BME280;66771;52.434;17.056;2023-03-25T06:39:27;99389.09;;;8.90;80.92
77603;BME280;66771;52.434;17.056;2023-03-25T06:41:57;99391.66;;;8.90;80.66
77603;BME280;66771;52.434;17.056;2023-03-25T06:44:44;99393.54;;;8.97;80.62
77603;BME280;66771;52.434;17.056;2023-03-25T06:47:27;99389.28;;;9.06;80.43
77603;BME280;66771;52.434;17.056;2023-03-25T06:49:54;99386.34;;;9.13;80.27
77603;BME280;66771;52.434;17.056;2023-03-25T06:52:21;99388.17;;;9.18;80.18
77603;BME280;66771;52.434;17.056;2023-03-25T06:54:47;99390.16;;;9.24;80.11
77603;BME280;66771;52.434;17.056;2023-03-25T06:57:14;99392.57;;;9.39;80.10
77603;BME280;66771;52.434;17.056;2023-03-25T06:59:42;99394.78;;;9.55;79.64
77603;BME280;66771;52.434;17.056;2023-03-25T07:02:11;99398.49;;;9.70;79.46
77603;BME280;66771;52.434;17.056;2023-03-25T07:04:39;99401.10;;;9.88;79.28
77603;BME280;66771;52.434;17.056;2023-03-25T07:07:07;99399.94;;;10.02;79.35
77603;BME280;66771;52.434;17.056;2023-03-25T07:09:34;99402.30;;;10.12;79.30
77603;BME280;66771;52.434;17.056;2023-03-25T07:12:01;99399.30;;;10.18;78.96
77603;BME280;66771;52.434;17.056;2023-03-25T07:14:28;99386.52;;;10.18;78.42
77603;BME280;66771;52.434;17.056;2023-03-25T07:16:55;99392.95;;;10.24;78.19
77603;BME280;66771;52.434;17.056;2023-03-25T07:19:22;99384.80;;;10.25;77.65
77603;BME280;66771;52.434;17.056;2023-03-25T07:21:49;99385.06;;;10.26;77.88
77603;BME280;66771;52.434;17.056;2023-03-25T07:24:16;99382.71;;;10.30;77.62
77603;BME280;66771;52.434;17.056;2023-03-25T07:26:43;99382.63;;;10.31;77.39
77603;BME280;66771;52.434;17.056;2023-03-25T07:29:10;99383.24;;;10.32;76.95
77603;BME280;66771;52.434;17.056;2023-03-25T07:31:37;99381.20;;;10.33;77.02
77603;BME280;66771;52.434;17.056;2023-03-25T07:34:05;99376.61;;;10.37;76.89
77603;BME280;66771;52.434;17.056;2023-03-25T07:36:33;99376.33;;;10.42;76.42
77603;BME280;66771;52.434;17.056;2023-03-25T07:39:01;99374.83;;;10.43;76.18
77603;BME280;66771;52.434;17.056;2023-03-25T07:41:28;99374.52;;;10.57;76.26
77603;BME280;66771;52.434;17.056;2023-03-25T07:44:08;99379.17;;;10.72;76.23
77603;BME280;66771;52.434;17.056;2023-03-25T07:46:37;99384.26;;;10.81;75.77
77603;BME280;66771;52.434;17.056;2023-03-25T07:49:04;99381.80;;;10.78;74.73
77603;BME280;66771;52.434;17.056;2023-03-25T07:51:31;99376.18;;;10.73;75.29
77603;BME280;66771;52.434;17.056;2023-03-25T07:54:00;99376.84;;;10.72;75.41
77603;BME280;66771;52.434;17.056;2023-03-25T07:56:27;99378.26;;;10.69;75.35
77603;BME280;66771;52.434;17.056;2023-03-25T07:58:54;99374.56;;;10.77;75.37
77603;BME280;66771;52.434;17.056;2023-03-25T08:01:21;99375.23;;;10.92;75.88
77603;BME280;66771;52.434;17.056;2023-03-25T08:03:48;99375.31;;;11.08;75.46
77603;BME280;66771;52.434;17.056;2023-03-25T08:06:15;99372.77;;;11.24;75.39
77603;BME280;66771;52.434;17.056;2023-03-25T08:08:42;99376.27;;;11.43;74.35
77603;BME280;66771;52.434;17.056;2023-03-25T08:11:09;99378.33;;;11.46;74.26
77603;BME280;66771;52.434;17.056;2023-03-25T08:13:37;99377.42;;;11.49;73.98
77603;BME280;66771;52.434;17.056;2023-03-25T08:16:14;99375.39;;;11.42;73.95
77603;BME280;66771;52.434;17.056;2023-03-25T08:18:41;99379.17;;;11.37;72.56
77603;BME280;66771;52.434;17.056;2023-03-25T08:21:11;99374.27;;;11.45;73.06
77603;BME280;66771;52.434;17.056;2023-03-25T08:23:39;99371.81;;;11.81;73.20
77603;BME280;66771;52.434;17.056;2023-03-25T08:26:07;99371.52;;;12.09;72.79
77603;BME280;66771;52.434;17.056;2023-03-25T08:28:33;99366.55;;;12.20;72.15
77603;BME280;66771;52.434;17.056;2023-03-25T08:31:05;99368.91;;;12.20;72.29
77603;BME280;66771;52.434;17.056;2023-03-25T08:33:32;99368.11;;;12.22;71.94
77603;BME280;66771;52.434;17.056;2023-03-25T08:36:00;99369.77;;;12.56;71.87
77603;BME280;66771;52.434;17.056;2023-03-25T08:38:28;99369.37;;;12.99;71.16
77603;BME280;66771;52.434;17.056;2023-03-25T08:40:58;99369.84;;;13.48;69.87
77603;BME280;66771;52.434;17.056;2023-03-25T08:43:26;99367.73;;;13.80;67.89
77603;BME280;66771;52.434;17.056;2023-03-25T08:45:53;99365.20;;;14.17;68.90
77603;BME280;66771;52.434;17.056;2023-03-25T08:48:19;99362.44;;;14.75;68.01
77603;BME280;66771;52.434;17.056;2023-03-25T08:50:46;99368.48;;;15.10;64.39
77603;BME280;66771;52.434;17.056;2023-03-25T08:53:13;99369.27;;;14.86;64.53
77603;BME280;66771;52.434;17.056;2023-03-25T08:55:40;99371.24;;;14.63;65.98
77603;BME280;66771;52.434;17.056;2023-03-25T08:58:07;99368.83;;;14.44;65.76
77603;BME280;66771;52.434;17.056;2023-03-25T09:00:35;99365.89;;;14.97;67.02
77603;BME280;66771;52.434;17.056;2023-03-25T09:03:04;99360.39;;;15.67;62.52
77603;BME280;66771;52.434;17.056;2023-03-25T09:05:31;99358.34;;;15.26;61.43
77603;BME280;66771;52.434;17.056;2023-03-25T09:07:59;99355.45;;;15.86;63.04
77603;BME280;66771;52.434;17.056;2023-03-25T09:10:27;99343.64;;;17.57;58.66
77603;BME280;66771;52.434;17.056;2023-03-25T09:12:54;99344.21;;;17.66;57.83
77603;BME280;66771;52.434;17.056;2023-03-25T09:15:23;99349.48;;;17.02;57.81
77603;BME280;66771;52.434;17.056;2023-03-25T09:17:50;99349.77;;;16.25;58.45
77603;BME280;66771;52.434;17.056;2023-03-25T09:20:18;99354.02;;;15.56;58.66
77603;BME280;66771;52.434;17.056;2023-03-25T09:22:45;99355.81;;;15.06;59.25
77603;BME280;66771;52.434;17.056;2023-03-25T09:25:13;99357.37;;;14.70;59.42
77603;BME280;66771;52.434;17.056;2023-03-25T09:27:40;99358.91;;;14.44;59.67
77603;BME280;66771;52.434;17.056;2023-03-25T09:30:08;99358.21;;;14.09;60.65
77603;BME280;66771;52.434;17.056;2023-03-25T09:32:35;99353.13;;;13.89;61.41
77603;BME280;66771;52.434;17.056;2023-03-25T09:35:03;99353.25;;;13.72;61.54
77603;BME280;66771;52.434;17.056;2023-03-25T09:37:30;99358.91;;;13.50;61.47
77603;BME280;66771;52.434;17.056;2023-03-25T09:39:58;99357.45;;;13.27;61.47
77603;BME280;66771;52.434;17.056;2023-03-25T09:42:50;99363.45;;;13.12;61.57
77603;BME280;66771;52.434;17.056;2023-03-25T09:45:44;99372.46;;;13.04;61.56
77603;BME280;66771;52.434;17.056;2023-03-25T09:51:33;99371.79;;;12.96;61.74
77603;BME280;66771;52.434;17.056;2023-03-25T09:57:06;99369.60;;;13.12;62.52
77603;BME280;66771;52.434;17.056;2023-03-25T09:59:46;99365.41;;;13.15;62.21
77603;BME280;66771;52.434;17.056;2023-03-25T10:02:26;99369.23;;;13.18;62.04
77603;BME280;66771;52.434;17.056;2023-03-25T10:05:24;99362.17;;;13.31;62.65
77603;BME280;66771;52.434;17.056;2023-03-25T10:11:03;99365.97;;;13.94;61.50
77603;BME280;66771;52.434;17.056;2023-03-25T10:16:25;99357.67;;;14.68;59.86
77603;BME280;66771;52.434;17.056;2023-03-25T10:19:22;99358.08;;;14.55;57.20
77603;BME280;66771;52.434;17.056;2023-03-25T10:21:57;99354.39;;;14.14;57.54
77603;BME280;66771;52.434;17.056;2023-03-25T10:24:47;99354.75;;;13.99;58.15
77603;BME280;66771;52.434;17.056;2023-03-25T10:27:39;99352.11;;;13.92;58.57
77603;BME280;66771;52.434;17.056;2023-03-25T10:30:15;99348.02;;;13.96;58.53
77603;BME280;66771;52.434;17.056;2023-03-25T10:32:48;99343.88;;;14.06;58.49
77603;BME280;66771;52.434;17.056;2023-03-25T10:35:23;99338.17;;;14.18;58.25
77603;BME280;66771;52.434;17.056;2023-03-25T10:37:56;99337.25;;;14.35;57.76
77603;BME280;66771;52.434;17.056;2023-03-25T10:40:38;99336.27;;;14.55;57.24
77603;BME280;66771;52.434;17.056;2023-03-25T10:43:32;99325.68;;;14.58;55.53
77603;BME280;66771;52.434;17.056;2023-03-25T10:46:12;99335.89;;;14.41;56.42
77603;BME280;66771;52.434;17.056;2023-03-25T10:48:44;99320.79;;;14.15;56.98
77603;BME280;66771;52.434;17.056;2023-03-25T10:51:15;99319.89;;;13.94;56.31
77603;BME280;66771;52.434;17.056;2023-03-25T10:53:47;99322.15;;;13.63;57.26
77603;BME280;66771;52.434;17.056;2023-03-25T10:56:28;99326.70;;;13.44;57.92
77603;BME280;66771;52.434;17.056;2023-03-25T10:58:57;99332.09;;;13.27;58.63
77603;BME280;66771;52.434;17.056;2023-03-25T11:01:34;99336.82;;;12.81;60.98
77603;BME280;66771;52.434;17.056;2023-03-25T11:04:04;99348.06;;;12.26;62.83
77603;BME280;66771;52.434;17.056;2023-03-25T11:06:36;99351.99;;;11.71;64.25
77603;BME280;66771;52.434;17.056;2023-03-25T11:11:40;99352.34;;;10.72;67.59
77603;BME280;66771;52.434;17.056;2023-03-25T11:14:07;99342.71;;;10.37;69.08
77603;BME280;66771;52.434;17.056;2023-03-25T11:16:39;99334.55;;;10.00;70.00
77603;BME280;66771;52.434;17.056;2023-03-25T11:19:15;99335.20;;;9.82;70.57
77603;BME280;66771;52.434;17.056;2023-03-25T11:21:46;99337.15;;;9.92;71.46
77603;BME280;66771;52.434;17.056;2023-03-25T11:24:17;99342.02;;;10.06;71.77
77603;BME280;66771;52.434;17.056;2023-03-25T11:26:45;99351.66;;;10.15;71.72
77603;BME280;66771;52.434;17.056;2023-03-25T11:29:18;99351.33;;;10.13;71.69
77603;BME280;66771;52.434;17.056;2023-03-25T11:31:56;99361.20;;;10.03;71.90
77603;BME280;66771;52.434;17.056;2023-03-25T11:34:24;99371.55;;;9.89;72.13
77603;BME280;66771;52.434;17.056;2023-03-25T11:39:35;99378.24;;;9.38;73.51
77603;BME280;66771;52.434;17.056;2023-03-25T11:44:39;99373.84;;;9.04;73.91
77603;BME280;66771;52.434;17.056;2023-03-25T11:47:08;99374.52;;;8.99;74.20
77603;BME280;66771;52.434;17.056;2023-03-25T11:49:38;99371.71;;;8.90;74.29
77603;BME280;66771;52.434;17.056;2023-03-25T11:52:40;99367.75;;;8.88;74.56
77603;BME280;66771;52.434;17.056;2023-03-25T11:54:59;99357.22;;;8.96;74.65
77603;BME280;66771;52.434;17.056;2023-03-25T11:57:31;99362.77;;;9.17;74.90
77603;BME280;66771;52.434;17.056;2023-03-25T12:02:43;99344.09;;;10.48;74.63
77603;BME280;66771;52.434;17.056;2023-03-25T12:05:13;99337.08;;;12.06;74.43
77603;BME280;66771;52.434;17.056;2023-03-25T12:07:46;99326.58;;;13.90;73.67
77603;BME280;66771;52.434;17.056;2023-03-25T12:10:22;99326.22;;;15.21;69.69
77603;BME280;66771;52.434;17.056;2023-03-25T12:25:57;99304.02;;;18.87;58.72
77603;BME280;66771;52.434;17.056;2023-03-25T12:28:58;99304.52;;;18.90;54.89
77603;BME280;66771;52.434;17.056;2023-03-25T12:45:17;99293.89;;;15.05;56.56
77603;BME280;66771;52.434;17.056;2023-03-25T12:47:58;99287.81;;;14.82;58.04
77603;BME280;66771;52.434;17.056;2023-03-25T12:50:56;99287.52;;;14.67;58.09
77603;BME280;66771;52.434;17.056;2023-03-25T12:53:41;99281.73;;;14.65;58.86
77603;BME280;66771;52.434;17.056;2023-03-25T13:09:57;99267.36;;;14.92;57.79
77603;BME280;66771;52.434;17.056;2023-03-25T13:12:39;99261.34;;;15.13;56.38
77603;BME280;66771;52.434;17.056;2023-03-25T13:20:25;99254.22;;;16.42;52.83
77603;BME280;66771;52.434;17.056;2023-03-25T13:23:01;99253.86;;;16.40;53.27
77603;BME280;66771;52.434;17.056;2023-03-25T13:25:44;99253.67;;;16.46;51.70
77603;BME280;66771;52.434;17.056;2023-03-25T13:28:20;99257.48;;;16.52;51.44
77603;BME280;66771;52.434;17.056;2023-03-25T13:30:49;99257.17;;;16.19;50.37
77603;BME280;66771;52.434;17.056;2023-03-25T13:33:23;99255.96;;;15.61;50.14
77603;BME280;66771;52.434;17.056;2023-03-25T13:35:58;99275.73;;;14.92;51.63
77603;BME280;66771;52.434;17.056;2023-03-25T13:41:31;99328.73;;;13.14;53.81
77603;BME280;66771;52.434;17.056;2023-03-25T13:43:59;99343.41;;;11.59;59.62
77603;BME280;66771;52.434;17.056;2023-03-25T13:46:39;99347.33;;;10.41;63.36
77603;BME280;66771;52.434;17.056;2023-03-25T13:49:16;99336.54;;;9.68;65.62
77603;BME280;66771;52.434;17.056;2023-03-25T13:51:44;99321.35;;;9.44;67.15
77603;BME280;66771;52.434;17.056;2023-03-25T13:54:45;99311.80;;;9.54;68.54
77603;BME280;66771;52.434;17.056;2023-03-25T13:57:28;99312.55;;;9.95;69.86
77603;BME280;66771;52.434;17.056;2023-03-25T14:11:43;99296.23;;;10.63;73.25
77603;BME280;66771;52.434;17.056;2023-03-25T14:14:14;99293.83;;;10.60;73.74
77603;BME280;66771;52.434;17.056;2023-03-25T14:16:49;99292.98;;;10.58;73.30
77603;BME280;66771;52.434;17.056;2023-03-25T14:19:24;99294.45;;;10.48;73.90
77603;BME280;66771;52.434;17.056;2023-03-25T14:21:53;99290.67;;;10.36;74.34
77603;BME280;66771;52.434;17.056;2023-03-25T14:24:34;99292.02;;;10.12;74.78
77603;BME280;66771;52.434;17.056;2023-03-25T14:27:26;99299.25;;;9.91;75.01
77603;BME280;66771;52.434;17.056;2023-03-25T14:30:01;99307.23;;;9.72;75.12
77603;BME280;66771;52.434;17.056;2023-03-25T14:32:36;99308.58;;;9.52;75.82
77603;BME280;66771;52.434;17.056;2023-03-25T14:46:12;99298.66;;;9.14;77.48
77603;BME280;66771;52.434;17.056;2023-03-25T14:54:03;99295.04;;;11.02;74.60
77603;BME280;66771;52.434;17.056;2023-03-25T14:56:44;99292.82;;;11.83;73.59
77603;BME280;66771;52.434;17.056;2023-03-25T14:59:16;99283.07;;;13.33;70.76
77603;BME280;66771;52.434;17.056;2023-03-25T15:01:44;99281.20;;;14.46;69.88
77603;BME280;66771;52.434;17.056;2023-03-25T15:04:21;99276.23;;;15.49;69.03
77603;BME280;66771;52.434;17.056;2023-03-25T15:06:50;99270.09;;;16.11;67.57
77603;BME280;66771;52.434;17.056;2023-03-25T15:09:18;99267.80;;;16.63;65.94
77603;BME280;66771;52.434;17.056;2023-03-25T15:11:57;99267.15;;;17.18;64.87
77603;BME280;66771;52.434;17.056;2023-03-25T15:14:37;99262.48;;;17.45;64.66
77603;BME280;66771;52.434;17.056;2023-03-25T15:17:09;99265.06;;;17.42;64.11
77603;BME280;66771;52.434;17.056;2023-03-25T15:22:28;99254.73;;;16.17;63.49
77603;BME280;66771;52.434;17.056;2023-03-25T15:24:57;99260.62;;;15.90;62.38
77603;BME280;66771;52.434;17.056;2023-03-25T15:27:49;99262.55;;;15.81;59.55
77603;BME280;66771;52.434;17.056;2023-03-25T15:36:04;99269.00;;;14.22;61.62
77603;BME280;66771;52.434;17.056;2023-03-25T15:38:51;99264.06;;;13.60;60.95
77603;BME280;66771;52.434;17.056;2023-03-25T15:41:30;99259.05;;;13.06;62.58